createdAt,value
2019-02-26T00:02:25.943Z,23.55
2019-02-26T00:04:56.398Z,23.02
2019-02-26T00:07:28.111Z,22.80
2019-02-26T00:09:59.475Z,22.85
2019-02-26T00:12:30.948Z,23.80
2019-02-26T00:15:02.485Z,22.22
2019-02-26T00:17:36.260Z,24.20
2019-02-26T00:20:05.618Z,22.75
2019-02-26T00:22:36.704Z,23.52
2019-02-26T00:25:08.502Z,23.10
2019-02-26T00:27:39.187Z,22.98
2019-02-26T00:30:14.338Z,23.30
2019-02-26T00:32:44.179Z,22.93
2019-02-26T00:35:13.723Z,22.52
2019-02-26T00:37:44.073Z,24.00
2019-02-26T00:40:17.174Z,22.20
2019-02-26T00:42:45.984Z,24.10
2019-02-26T00:45:15.703Z,24.23
2019-02-26T00:47:46.141Z,22.82
2019-02-26T00:50:16.614Z,24.02
2019-02-26T00:52:46.433Z,22.52
2019-02-26T00:55:16.713Z,24.45
2019-02-26T00:57:46.508Z,22.30
2019-02-26T01:00:17.077Z,23.32
2019-02-26T01:02:47.350Z,22.80
2019-02-26T01:05:17.205Z,23.45
2019-02-26T01:07:49.356Z,23.73
2019-02-26T01:10:19.300Z,22.75
2019-02-26T01:12:49.672Z,22.50
2019-02-26T01:15:20.929Z,22.25
2019-02-26T01:18:09.827Z,23.65
2019-02-26T01:20:39.354Z,23.90
2019-02-26T01:23:09.439Z,24.57
2019-02-26T01:25:38.987Z,23.83
2019-02-26T01:28:08.514Z,23.65
2019-02-26T01:30:38.114Z,25.05
2019-02-26T01:33:09.771Z,23.70
2019-02-26T01:35:39.354Z,23.22
2019-02-26T01:38:09.490Z,24.02
2019-02-26T01:40:41.511Z,24.18
2019-02-26T01:43:10.260Z,22.58
2019-02-26T01:45:39.983Z,24.02
2019-02-26T01:48:11.494Z,24.18
2019-02-26T01:50:41.525Z,24.00
2019-02-26T01:53:12.185Z,23.80
2019-02-26T01:55:45.930Z,24.92
2019-02-26T01:58:16.549Z,23.73
2019-02-26T02:00:46.327Z,23.02
2019-02-26T02:03:16.550Z,21.57
2019-02-26T02:05:47.956Z,22.17
2019-02-26T02:08:20.227Z,22.58
2019-02-26T02:10:51.412Z,24.18
2019-02-26T02:13:20.834Z,23.73
2019-02-26T02:15:50.372Z,23.02
2019-02-26T02:18:21.025Z,24.18
2019-02-26T02:20:51.210Z,23.35
2019-02-26T02:23:21.262Z,23.22
2019-02-26T02:25:52.055Z,22.77
2019-02-26T02:28:23.887Z,23.47
2019-02-26T02:30:53.689Z,23.87
2019-02-26T02:33:26.350Z,23.57
2019-02-26T02:35:54.585Z,25.60
2019-02-26T02:38:24.118Z,24.12
2019-02-26T02:40:54.886Z,23.87
2019-02-26T02:43:24.540Z,23.12
2019-02-26T02:45:56.419Z,23.92
2019-02-26T02:48:25.983Z,24.63
2019-02-26T02:50:55.964Z,23.65
2019-02-26T02:53:27.457Z,22.95
2019-02-26T02:55:58.151Z,24.37
2019-02-26T02:58:27.674Z,24.80
2019-02-26T03:01:00.193Z,25.90
2019-02-26T03:03:28.737Z,24.90
2019-02-26T03:06:00.843Z,25.32
2019-02-26T03:08:29.907Z,25.88
2019-02-26T03:10:59.450Z,25.82
2019-02-26T03:13:28.971Z,25.92
2019-02-26T03:15:59.332Z,26.23
2019-02-26T03:18:29.746Z,26.35
2019-02-26T03:21:02.069Z,25.55
2019-02-26T03:23:33.384Z,25.68
2019-02-26T03:26:02.274Z,24.75
2019-02-26T03:28:34.900Z,25.88
2019-02-26T03:31:03.360Z,26.73
2019-02-26T03:33:32.990Z,26.75
2019-02-26T03:36:05.464Z,26.82
2019-02-26T03:38:33.741Z,24.63
2019-02-26T03:41:03.760Z,25.75
2019-02-26T03:43:34.203Z,25.72
2019-02-26T03:46:05.319Z,25.45
2019-02-26T03:48:35.553Z,24.82
2019-02-26T03:51:05.168Z,25.92
2019-02-26T03:53:36.344Z,25.62
2019-02-26T03:56:11.744Z,26.17
2019-02-26T03:58:39.646Z,24.90
2019-02-26T04:01:10.940Z,24.80
2019-02-26T04:03:42.374Z,26.52
2019-02-26T04:06:12.168Z,24.82
2019-02-26T04:08:44.748Z,24.25
2019-02-26T04:11:13.810Z,24.70
2019-02-26T04:13:46.091Z,24.52
2019-02-26T04:16:15.974Z,25.72
2019-02-26T04:18:45.519Z,24.07
2019-02-26T04:21:18.409Z,25.17
2019-02-26T04:23:47.064Z,24.52
2019-02-26T04:26:34.455Z,24.85
2019-02-26T04:29:08.380Z,23.83
2019-02-26T04:31:52.079Z,24.00
2019-02-26T04:34:30.399Z,24.57
2019-02-26T04:37:04.787Z,24.65
2019-02-26T04:39:47.642Z,24.10
2019-02-26T04:42:26.566Z,24.15
2019-02-26T04:45:08.398Z,24.12
2019-02-26T04:47:40.764Z,24.23
2019-02-26T04:50:10.578Z,23.95
2019-02-26T04:52:43.276Z,22.98
2019-02-26T04:55:11.547Z,22.73
2019-02-26T04:57:43.404Z,23.12
2019-02-26T05:00:12.703Z,23.73
2019-02-26T05:02:42.337Z,23.38
2019-02-26T05:05:12.223Z,23.15
2019-02-26T05:07:44.386Z,22.55
2019-02-26T05:10:13.538Z,23.15
2019-02-26T05:12:43.065Z,21.50
2019-02-26T05:15:16.994Z,22.30
2019-02-26T05:17:43.976Z,22.95
2019-02-26T05:20:16.527Z,23.10
2019-02-26T05:22:45.100Z,22.48
2019-02-26T05:25:17.052Z,22.75
2019-02-26T05:27:48.192Z,22.80
2019-02-26T05:30:19.657Z,23.05
2019-02-26T05:32:48.317Z,21.95
2019-02-26T05:35:20.345Z,21.95
2019-02-26T05:37:49.082Z,22.32
2019-02-26T05:40:21.883Z,22.50
2019-02-26T05:42:49.901Z,22.77
2019-02-26T05:45:21.512Z,22.87
2019-02-26T05:47:51.380Z,23.05
2019-02-26T05:50:21.890Z,22.80
2019-02-26T05:52:57.522Z,23.50
2019-02-26T05:55:23.722Z,22.95
2019-02-26T05:57:54.004Z,22.98
2019-02-26T06:00:28.449Z,23.30
2019-02-26T06:02:55.206Z,22.65
2019-02-26T06:05:26.166Z,22.30
2019-02-26T06:07:56.295Z,23.02
2019-02-26T06:10:27.205Z,23.70
2019-02-26T06:12:57.515Z,23.70
2019-02-26T06:15:28.852Z,24.07
2019-02-26T06:17:58.379Z,24.35
2019-02-26T06:20:29.206Z,23.65
2019-02-26T06:22:59.260Z,23.05
2019-02-26T06:25:28.847Z,23.57
2019-02-26T06:28:02.279Z,24.37
2019-02-26T06:30:29.843Z,24.25
2019-02-26T06:33:02.031Z,24.57
2019-02-26T06:35:31.545Z,24.10
2019-02-26T06:38:04.586Z,25.08
2019-02-26T06:40:36.957Z,25.90
2019-02-26T06:43:05.894Z,25.00
2019-02-26T06:45:37.537Z,25.30
2019-02-26T06:48:06.710Z,26.42
2019-02-26T06:50:36.821Z,27.82
2019-02-26T06:53:09.153Z,27.25
2019-02-26T06:55:38.778Z,26.68
2019-02-26T06:58:20.351Z,27.77
2019-02-26T07:00:55.136Z,26.62
2019-02-26T07:03:24.793Z,25.70
2019-02-26T07:05:54.282Z,30.17
2019-02-26T07:08:25.994Z,28.90
2019-02-26T07:10:57.955Z,27.40
2019-02-26T07:13:27.552Z,27.48
2019-02-26T07:15:57.140Z,27.20
2019-02-26T07:18:27.062Z,27.52
2019-02-26T07:21:00.307Z,28.00
2019-02-26T07:23:32.594Z,27.40
2019-02-26T07:26:01.871Z,28.07
2019-02-26T07:28:31.399Z,28.05
2019-02-26T07:31:02.732Z,27.00
2019-02-26T07:33:34.317Z,28.23
2019-02-26T07:36:04.220Z,28.27
2019-02-26T07:38:40.907Z,27.48
2019-02-26T07:41:06.165Z,28.45
2019-02-26T07:43:38.786Z,27.90
2019-02-26T07:46:09.531Z,28.17
2019-02-26T07:48:38.638Z,28.52
2019-02-26T07:51:08.827Z,28.90
2019-02-26T07:53:42.042Z,28.90
2019-02-26T07:56:09.818Z,28.23
2019-02-26T07:58:43.147Z,29.35
2019-02-26T08:01:13.302Z,27.70
2019-02-26T08:03:43.947Z,27.42
2019-02-26T08:06:14.283Z,29.40
2019-02-26T08:08:44.881Z,27.58
2019-02-26T08:11:15.257Z,28.70
2019-02-26T08:13:45.246Z,27.37
2019-02-26T08:16:15.210Z,26.65
2019-02-26T08:18:45.175Z,26.07
2019-02-26T08:21:15.189Z,25.12
2019-02-26T08:23:46.096Z,24.25
2019-02-26T08:26:18.056Z,23.75
2019-02-26T08:28:48.245Z,23.47
2019-02-26T08:31:20.514Z,24.02
2019-02-26T08:33:51.689Z,23.18
2019-02-26T08:36:20.459Z,21.80
2019-02-26T08:38:51.959Z,20.85
2019-02-26T08:41:21.890Z,22.15
2019-02-26T08:43:52.132Z,21.15
2019-02-26T08:46:22.727Z,21.57
2019-02-26T08:48:52.282Z,23.18
2019-02-26T08:51:21.820Z,23.32
2019-02-26T08:53:51.840Z,22.30
2019-02-26T08:56:23.929Z,22.35
2019-02-26T08:58:54.747Z,22.37
2019-02-26T09:01:25.597Z,23.15
2019-02-26T09:03:55.935Z,23.05
2019-02-26T09:06:26.367Z,23.80
2019-02-26T09:08:57.941Z,22.98
2019-02-26T09:11:28.700Z,25.40
2019-02-26T09:14:03.898Z,24.50
2019-02-26T09:16:52.150Z,25.08
2019-02-26T09:19:22.675Z,25.77
2019-02-26T09:22:13.966Z,26.00
2019-02-26T09:24:42.071Z,26.55
2019-02-26T09:27:11.679Z,27.82
2019-02-26T09:29:47.370Z,26.17
2019-02-26T09:32:14.419Z,25.88
2019-02-26T09:34:45.103Z,26.12
2019-02-26T09:37:15.351Z,25.40
2019-02-26T09:39:45.222Z,27.02
2019-02-26T09:42:15.218Z,27.13
2019-02-26T09:44:45.137Z,27.55
2019-02-26T09:47:15.074Z,28.10
2019-02-26T09:49:47.293Z,28.50
2019-02-26T09:52:18.402Z,26.15
2019-02-26T09:54:48.246Z,31.95
2019-02-26T09:57:21.163Z,30.12
2019-02-26T09:59:52.174Z,28.52
2019-02-26T10:02:22.317Z,27.62
2019-02-26T10:04:54.417Z,26.48
2019-02-26T10:07:26.081Z,28.07
2019-02-26T10:09:55.300Z,26.33
2019-02-26T10:12:27.432Z,24.85
2019-02-26T10:14:59.592Z,26.68
2019-02-26T10:17:28.451Z,26.50
2019-02-26T10:19:59.375Z,26.48
2019-02-26T10:22:33.183Z,27.80
2019-02-26T10:25:00.704Z,27.55
2019-02-26T10:27:33.641Z,28.25
2019-02-26T10:30:05.057Z,28.25
2019-02-26T10:32:33.910Z,30.35
2019-02-26T10:35:09.675Z,30.12
2019-02-26T10:37:43.943Z,27.75
2019-02-26T10:40:16.966Z,29.52
2019-02-26T10:42:46.255Z,27.00
2019-02-26T10:45:18.854Z,26.62
2019-02-26T10:47:49.354Z,28.15
2019-02-26T10:50:25.208Z,28.70
2019-02-26T10:53:01.471Z,30.70
2019-02-26T10:55:35.242Z,31.52
2019-02-26T10:58:04.120Z,30.52
2019-02-26T11:00:35.308Z,29.82
2019-02-26T11:03:06.436Z,29.15
2019-02-26T11:05:37.202Z,27.48
2019-02-26T11:08:09.325Z,27.07
2019-02-26T11:10:41.417Z,25.95
2019-02-26T11:13:12.442Z,28.80
2019-02-26T11:15:41.935Z,27.35
2019-02-26T11:18:12.290Z,28.17
2019-02-26T11:20:45.238Z,28.75
2019-02-26T11:23:16.099Z,30.37
2019-02-26T11:25:45.372Z,29.87
2019-02-26T11:28:15.195Z,28.50
2019-02-26T11:30:46.629Z,28.52
2019-02-26T11:33:16.234Z,28.00
2019-02-26T11:35:47.105Z,28.70
2019-02-26T11:38:19.520Z,29.72
2019-02-26T11:40:48.431Z,29.52
2019-02-26T11:43:22.553Z,28.75
2019-02-26T11:45:49.292Z,26.62
2019-02-26T11:48:21.289Z,26.52
2019-02-26T11:50:50.481Z,24.75
2019-02-26T11:53:20.055Z,23.05
2019-02-26T11:55:52.541Z,22.15
2019-02-26T11:58:22.346Z,21.70
2019-02-26T12:00:54.460Z,21.20
2019-02-26T12:03:25.433Z,20.32
2019-02-26T12:05:56.691Z,21.48
2019-02-26T12:08:26.926Z,16.90
2019-02-26T12:11:01.113Z,14.73
2019-02-26T12:13:27.858Z,16.05
2019-02-26T12:15:57.509Z,16.30
2019-02-26T12:18:27.767Z,16.50
2019-02-26T12:20:57.462Z,16.60
2019-02-26T12:23:27.019Z,17.23
2019-02-26T12:25:59.235Z,16.85
2019-02-26T12:28:28.323Z,16.40
2019-02-26T12:31:01.255Z,16.60
2019-02-26T12:33:32.448Z,15.03
2019-02-26T12:36:04.408Z,16.25
2019-02-26T12:38:36.529Z,16.07
2019-02-26T12:41:06.802Z,14.45
2019-02-26T12:46:08.479Z,15.85
2019-02-26T12:48:41.753Z,17.02
2019-02-26T12:51:09.999Z,18.17
2019-02-26T12:53:44.075Z,19.98
2019-02-26T12:56:13.484Z,18.77
2019-02-26T12:58:45.193Z,20.15
2019-02-26T13:01:15.431Z,17.55
2019-02-26T13:03:49.692Z,18.80
2019-02-26T13:06:18.676Z,17.85
2019-02-26T13:08:49.778Z,17.02
2019-02-26T13:11:21.025Z,16.70
2019-02-26T13:13:52.601Z,15.98
2019-02-26T13:16:21.456Z,15.05
2019-02-26T13:18:55.384Z,12.80
2019-02-26T13:21:22.296Z,12.07
2019-02-26T13:24:11.809Z,10.78
2019-02-26T13:26:35.970Z,11.93
2019-02-26T13:29:04.369Z,13.08
2019-02-26T13:31:37.198Z,12.25
2019-02-26T13:34:05.379Z,10.82
2019-02-26T13:36:36.377Z,10.32
2019-02-26T13:39:07.402Z,10.72
2019-02-26T13:41:42.530Z,11.03
2019-02-26T13:44:12.333Z,11.08
2019-02-26T13:46:41.999Z,9.93
2019-02-26T13:49:11.745Z,10.98
2019-02-26T13:51:41.375Z,10.25
2019-02-26T13:54:11.035Z,10.00
2019-02-26T13:56:41.152Z,9.73
2019-02-26T13:59:10.879Z,10.08
2019-02-26T14:01:40.543Z,9.33
2019-02-26T14:04:10.168Z,9.03
2019-02-26T14:06:39.964Z,8.68
2019-02-26T14:09:10.320Z,8.70
2019-02-26T14:11:40.185Z,7.55
2019-02-26T14:14:09.884Z,7.15
2019-02-26T14:16:39.525Z,6.60
2019-02-26T14:19:09.150Z,6.55
2019-02-26T14:21:38.764Z,6.25
2019-02-26T14:24:08.716Z,5.62
2019-02-26T14:26:38.406Z,6.50
2019-02-26T14:29:08.339Z,6.90
2019-02-26T14:31:37.970Z,7.33
2019-02-26T14:34:08.042Z,7.67
2019-02-26T14:36:37.966Z,7.30
2019-02-26T14:39:10.816Z,7.62
2019-02-26T14:41:40.432Z,7.25
2019-02-26T14:44:09.993Z,6.65
2019-02-26T14:46:40.579Z,5.17
2019-02-26T14:49:11.224Z,5.05
2019-02-26T14:51:40.860Z,5.58
2019-02-26T14:54:10.538Z,4.87
2019-02-26T14:56:41.177Z,5.80
2019-02-26T14:59:10.804Z,5.75
2019-02-26T15:01:40.740Z,5.42
2019-02-26T15:04:10.921Z,4.60
2019-02-26T15:06:40.563Z,4.85
2019-02-26T15:09:10.275Z,4.87
2019-02-26T15:11:39.823Z,5.53
2019-02-26T15:14:09.515Z,5.55
2019-02-26T15:16:39.776Z,5.45
2019-02-26T15:19:09.406Z,5.83
2019-02-26T15:21:39.094Z,5.33
2019-02-26T15:24:08.836Z,5.70
2019-02-26T15:26:38.544Z,6.60
2019-02-26T15:29:08.244Z,17.82
2019-02-26T15:31:39.574Z,16.67
2019-02-26T15:34:09.377Z,8.58
2019-02-26T15:36:39.056Z,8.93
2019-02-26T15:39:08.630Z,8.13
2019-02-26T15:41:38.241Z,8.38
2019-02-26T15:44:07.997Z,8.03
2019-02-26T15:46:37.636Z,8.43
2019-02-26T15:49:07.683Z,8.75
2019-02-26T15:51:37.831Z,8.25
2019-02-26T15:54:07.540Z,9.43
2019-02-26T15:56:37.159Z,9.73
2019-02-26T15:59:07.109Z,10.63
2019-02-26T16:01:37.014Z,9.40
2019-02-26T16:04:07.070Z,8.45
2019-02-26T16:06:37.012Z,9.18
2019-02-26T16:09:07.426Z,8.98
2019-02-26T16:11:37.040Z,7.62
2019-02-26T16:14:06.864Z,8.05
2019-02-26T16:16:36.759Z,7.67
2019-02-26T16:19:06.691Z,7.97
2019-02-26T16:21:54.697Z,7.33
2019-02-26T16:24:24.308Z,6.95
2019-02-26T16:26:54.345Z,6.58
2019-02-26T16:29:23.903Z,6.70
2019-02-26T16:31:53.515Z,6.53
2019-02-26T16:34:23.048Z,6.97
2019-02-26T16:36:53.369Z,6.78
2019-02-26T16:39:24.738Z,6.00
2019-02-26T16:41:54.218Z,6.80
2019-02-26T16:44:24.801Z,6.75
2019-02-26T16:46:55.377Z,7.25
2019-02-26T16:49:25.847Z,6.75
2019-02-26T16:51:56.320Z,6.95
2019-02-26T16:54:26.266Z,6.85
2019-02-26T16:56:56.790Z,6.95
2019-02-26T16:59:26.544Z,11.88
2019-02-26T17:01:56.070Z,9.18
2019-02-26T17:04:26.205Z,8.65
2019-02-26T17:06:56.245Z,15.50
2019-02-26T17:09:26.051Z,18.30
2019-02-26T17:11:55.979Z,17.80
2019-02-26T17:14:25.650Z,18.45
2019-02-26T17:16:55.613Z,18.30
2019-02-26T17:19:25.241Z,17.92
2019-02-26T17:21:55.024Z,18.10
2019-02-26T17:24:24.653Z,18.17
2019-02-26T17:26:54.195Z,17.25
2019-02-26T17:29:23.865Z,19.50
2019-02-26T17:31:53.539Z,19.00
2019-02-26T17:34:23.609Z,19.60
2019-02-26T17:36:53.294Z,19.55
2019-02-26T17:39:23.699Z,18.57
2019-02-26T17:41:54.407Z,18.57
2019-02-26T17:44:24.060Z,19.25
2019-02-26T17:46:53.618Z,20.82
2019-02-26T17:49:23.746Z,19.02
2019-02-26T17:51:53.390Z,20.37
2019-02-26T17:54:23.145Z,19.65
2019-02-26T17:56:52.769Z,19.62
2019-02-26T17:59:22.931Z,19.42
2019-02-26T18:01:52.537Z,23.87
2019-02-26T18:04:22.990Z,24.43
2019-02-26T18:06:53.197Z,25.77
2019-02-26T18:09:34.380Z,29.63
2019-02-26T18:12:04.143Z,23.87
2019-02-26T18:14:33.671Z,22.42
2019-02-26T18:17:03.353Z,21.17
2019-02-26T18:19:32.999Z,18.52
2019-02-26T18:22:02.609Z,18.95
2019-02-26T18:24:32.518Z,18.57
2019-02-26T18:27:02.851Z,19.15
2019-02-26T18:29:32.455Z,19.45
2019-02-26T18:32:02.190Z,20.70
2019-02-26T18:34:31.833Z,19.30
2019-02-26T18:37:01.435Z,21.33
2019-02-26T18:39:32.439Z,21.02
2019-02-26T18:42:02.723Z,22.00
2019-02-26T18:44:32.339Z,21.90
2019-02-26T18:47:01.982Z,22.22
2019-02-26T18:49:31.630Z,23.22
2019-02-26T18:52:08.385Z,23.12
2019-02-26T18:54:36.603Z,23.20
2019-02-26T18:57:06.173Z,23.60
2019-02-26T18:59:35.782Z,23.87
2019-02-26T19:02:05.734Z,23.73
2019-02-26T19:04:35.406Z,24.02
2019-02-26T19:07:08.775Z,25.02
2019-02-26T19:09:38.421Z,23.98
2019-02-26T19:12:08.113Z,24.67
2019-02-26T19:14:41.875Z,23.90
2019-02-26T19:17:08.955Z,24.82
2019-02-26T19:19:39.752Z,25.52
2019-02-26T19:22:09.732Z,24.02
2019-02-26T19:24:39.341Z,25.70
2019-02-26T19:27:09.731Z,26.02
2019-02-26T19:29:39.351Z,25.12
2019-02-26T19:32:10.167Z,24.50
2019-02-26T19:34:39.713Z,23.47
2019-02-26T19:37:09.440Z,24.57
2019-02-26T19:39:39.026Z,23.67
2019-02-26T19:42:08.567Z,24.32
2019-02-26T19:44:38.170Z,24.87
2019-02-26T19:47:07.795Z,24.50
2019-02-26T19:49:39.681Z,23.85
2019-02-26T19:52:08.789Z,23.45
2019-02-26T19:54:41.676Z,24.87
2019-02-26T19:57:09.813Z,24.15
2019-02-26T19:59:39.427Z,23.90
2019-02-26T20:02:09.021Z,24.18
2019-02-26T20:04:39.081Z,22.32
2019-02-26T20:07:08.779Z,22.70
2019-02-26T20:09:38.853Z,23.20
2019-02-26T20:12:10.069Z,23.12
2019-02-26T20:14:39.700Z,24.00
2019-02-26T20:17:14.793Z,23.40
2019-02-26T20:19:40.676Z,23.27
2019-02-26T20:22:10.804Z,23.05
2019-02-26T20:24:40.379Z,26.27
2019-02-26T20:27:10.050Z,26.17
2019-02-26T20:29:40.174Z,28.23
2019-02-26T20:32:09.803Z,29.72
2019-02-26T20:34:39.331Z,31.68
2019-02-26T20:37:09.924Z,32.70
2019-02-26T20:39:40.816Z,31.52
2019-02-26T20:42:10.786Z,35.20
2019-02-26T20:44:45.216Z,39.63
2019-02-26T20:47:12.541Z,41.25
2019-02-26T20:49:43.686Z,43.95
2019-02-26T20:52:13.283Z,39.58
2019-02-26T20:54:44.606Z,36.40
2019-02-26T20:57:14.060Z,35.05
2019-02-26T20:59:43.823Z,35.10
2019-02-26T21:02:13.450Z,38.40
2019-02-26T21:04:43.895Z,38.38
2019-02-26T21:07:13.685Z,39.98
2019-02-26T21:09:43.962Z,34.63
2019-02-26T21:12:13.506Z,35.92
2019-02-26T21:14:43.042Z,38.10
2019-02-26T21:17:13.247Z,41.33
2019-02-26T21:19:42.945Z,38.55
2019-02-26T21:22:12.561Z,39.73
2019-02-26T21:24:42.118Z,39.92
2019-02-26T21:27:11.763Z,36.42
2019-02-26T21:29:41.642Z,35.83
2019-02-26T21:32:12.587Z,34.48
2019-02-26T21:34:42.934Z,35.48
2019-02-26T21:37:13.184Z,33.28
2019-02-26T21:39:44.201Z,31.68
2019-02-26T21:42:14.077Z,30.55
2019-02-26T21:44:44.398Z,29.32
2019-02-26T21:47:14.098Z,32.90
2019-02-26T21:49:43.811Z,31.30
2019-02-26T21:52:13.344Z,31.33
2019-02-26T21:54:43.168Z,30.55
2019-02-26T21:57:12.702Z,31.02
2019-02-26T21:59:49.781Z,30.88
2019-02-26T22:02:13.502Z,30.35
2019-02-26T22:04:43.919Z,33.18
2019-02-26T22:07:13.512Z,31.97
2019-02-26T22:09:43.067Z,31.40
2019-02-26T22:12:12.599Z,31.55
2019-02-26T22:14:43.152Z,35.73
2019-02-26T22:17:14.037Z,34.00
2019-02-26T22:19:43.690Z,33.80
2019-02-26T22:22:14.048Z,35.05
2019-02-26T22:24:43.655Z,32.48
2019-02-26T22:27:13.182Z,33.50
2019-02-26T22:29:42.711Z,34.08
2019-02-26T22:32:13.278Z,34.63
2019-02-26T22:34:42.807Z,33.13
2019-02-26T22:37:12.335Z,35.60
2019-02-26T22:39:41.898Z,33.78
2019-02-26T22:42:11.534Z,34.00
2019-02-26T22:44:41.572Z,38.17
2019-02-26T22:47:11.463Z,40.60
2019-02-26T22:49:41.591Z,39.18
2019-02-26T22:52:11.503Z,38.92
2019-02-26T22:54:43.477Z,38.73
2019-02-26T22:57:12.771Z,38.55
2019-02-26T22:59:42.299Z,37.48
2019-02-26T23:02:13.325Z,37.88
2019-02-26T23:04:42.918Z,37.83
2019-02-26T23:07:12.753Z,34.13
2019-02-26T23:09:43.151Z,35.73
2019-02-26T23:12:13.414Z,36.88
2019-02-26T23:14:43.010Z,36.20
2019-02-26T23:17:13.298Z,35.60
2019-02-26T23:19:42.822Z,36.63
2019-02-26T23:22:12.639Z,35.38
2019-02-26T23:24:42.835Z,38.15
2019-02-26T23:27:14.952Z,37.48
2019-02-26T23:29:44.919Z,37.30
2019-02-26T23:32:14.810Z,38.28
2019-02-26T23:34:47.434Z,37.03
2019-02-26T23:37:17.718Z,38.55
2019-02-26T23:39:47.436Z,37.98
2019-02-26T23:42:17.039Z,38.60
2019-02-26T23:44:50.878Z,39.18
2019-02-26T23:47:17.880Z,38.45
2019-02-26T23:49:48.262Z,36.95
2019-02-26T23:52:18.241Z,37.88
2019-02-26T23:54:47.775Z,37.00
2019-02-26T23:57:18.502Z,36.80
2019-02-26T23:59:48.151Z,37.03
